sensor_id;sensor_type;location;lat;lon;timestamp;P1;durP1;ratioP1;P2;durP2;ratioP2
1505;SDS011;744;51.436;7.356;2023-04-16T00:01:03;28.40;;;16.97;;
1505;SDS011;744;51.436;7.356;2023-04-16T00:03:30;50.60;;;19.10;;
1505;SDS011;744;51.436;7.356;2023-04-16T00:05:58;44.87;;;18.67;;
1505;SDS011;744;51.436;7.356;2023-04-16T00:08:25;34.70;;;17.77;;
1505;SDS011;744;51.436;7.356;2023-04-16T00:10:52;35.73;;;16.80;;
1505;SDS011;744;51.436;7.356;2023-04-16T00:13:19;25.87;;;16.00;;
1505;SDS011;744;51.436;7.356;2023-04-16T00:15:46;54.27;;;19.93;;
1505;SDS011;744;51.436;7.356;2023-04-16T00:18:13;41.53;;;19.33;;
1505;SDS011;744;51.436;7.356;2023-04-16T00:20:39;34.17;;;16.87;;
1505;SDS011;744;51.436;7.356;2023-04-16T00:23:06;53.50;;;17.33;;
1505;SDS011;744;51.436;7.356;2023-04-16T00:25:33;63.00;;;19.67;;
1505;SDS011;744;51.436;7.356;2023-04-16T00:28:00;39.87;;;18.53;;
1505;SDS011;744;51.436;7.356;2023-04-16T00:30:26;35.47;;;16.07;;
1505;SDS011;744;51.436;7.356;2023-04-16T00:32:53;46.93;;;16.50;;
1505;SDS011;744;51.436;7.356;2023-04-16T00:35:20;45.93;;;17.43;;
1505;SDS011;744;51.436;7.356;2023-04-16T00:37:47;24.50;;;16.67;;
1505;SDS011;744;51.436;7.356;2023-04-16T00:40:13;31.10;;;16.30;;
1505;SDS011;744;51.436;7.356;2023-04-16T00:42:40;36.60;;;18.20;;
1505;SDS011;744;51.436;7.356;2023-04-16T00:45:07;40.27;;;16.87;;
1505;SDS011;744;51.436;7.356;2023-04-16T00:47:35;43.50;;;17.40;;
1505;SDS011;744;51.436;7.356;2023-04-16T00:50:02;33.93;;;17.90;;
1505;SDS011;744;51.436;7.356;2023-04-16T00:52:33;28.73;;;16.37;;
1505;SDS011;744;51.436;7.356;2023-04-16T00:55:00;38.03;;;17.20;;
1505;SDS011;744;51.436;7.356;2023-04-16T00:57:27;28.93;;;15.93;;
1505;SDS011;744;51.436;7.356;2023-04-16T00:59:54;26.37;;;15.50;;
1505;SDS011;744;51.436;7.356;2023-04-16T01:02:21;27.43;;;15.10;;
1505;SDS011;744;51.436;7.356;2023-04-16T01:04:48;28.80;;;15.23;;
1505;SDS011;744;51.436;7.356;2023-04-16T01:07:16;43.00;;;16.43;;
1505;SDS011;744;51.436;7.356;2023-04-16T01:09:43;46.57;;;19.17;;
1505;SDS011;744;51.436;7.356;2023-04-16T01:12:10;39.20;;;17.60;;
1505;SDS011;744;51.436;7.356;2023-04-16T01:14:36;78.60;;;19.60;;
1505;SDS011;744;51.436;7.356;2023-04-16T01:17:03;31.97;;;17.07;;
1505;SDS011;744;51.436;7.356;2023-04-16T01:19:30;32.10;;;16.03;;
1505;SDS011;744;51.436;7.356;2023-04-16T01:21:57;36.97;;;16.00;;
1505;SDS011;744;51.436;7.356;2023-04-16T01:24:24;28.50;;;16.23;;
1505;SDS011;744;51.436;7.356;2023-04-16T01:26:51;36.37;;;16.67;;
1505;SDS011;744;51.436;7.356;2023-04-16T01:29:18;36.77;;;17.67;;
1505;SDS011;744;51.436;7.356;2023-04-16T01:31:45;44.13;;;18.77;;
1505;SDS011;744;51.436;7.356;2023-04-16T01:34:12;53.97;;;18.43;;
1505;SDS011;744;51.436;7.356;2023-04-16T01:36:39;51.83;;;18.37;;
1505;SDS011;744;51.436;7.356;2023-04-16T01:39:06;36.87;;;17.50;;
1505;SDS011;744;51.436;7.356;2023-04-16T01:41:34;49.27;;;18.80;;
1505;SDS011;744;51.436;7.356;2023-04-16T01:44:01;30.57;;;17.20;;
1505;SDS011;744;51.436;7.356;2023-04-16T01:46:29;57.63;;;19.33;;
1505;SDS011;744;51.436;7.356;2023-04-16T01:48:58;48.67;;;17.10;;
1505;SDS011;744;51.436;7.356;2023-04-16T01:51:25;48.77;;;17.03;;
1505;SDS011;744;51.436;7.356;2023-04-16T01:53:53;36.27;;;16.00;;
1505;SDS011;744;51.436;7.356;2023-04-16T01:56:21;51.63;;;19.67;;
1505;SDS011;744;51.436;7.356;2023-04-16T01:58:47;40.50;;;18.30;;
1505;SDS011;744;51.436;7.356;2023-04-16T02:01:14;58.50;;;22.13;;
1505;SDS011;744;51.436;7.356;2023-04-16T02:03:41;46.27;;;18.50;;
1505;SDS011;744;51.436;7.356;2023-04-16T02:06:08;43.00;;;19.53;;
1505;SDS011;744;51.436;7.356;2023-04-16T02:08:35;36.50;;;18.60;;
1505;SDS011;744;51.436;7.356;2023-04-16T02:11:02;36.70;;;18.33;;
1505;SDS011;744;51.436;7.356;2023-04-16T02:13:29;47.60;;;20.67;;
1505;SDS011;744;51.436;7.356;2023-04-16T02:15:55;78.53;;;23.93;;
1505;SDS011;744;51.436;7.356;2023-04-16T02:18:22;65.83;;;21.17;;
1505;SDS011;744;51.436;7.356;2023-04-16T02:20:49;46.77;;;18.47;;
1505;SDS011;744;51.436;7.356;2023-04-16T02:23:16;44.53;;;18.97;;
1505;SDS011;744;51.436;7.356;2023-04-16T02:25:43;33.40;;;18.07;;
1505;SDS011;744;51.436;7.356;2023-04-16T02:28:13;24.13;;;17.63;;
1505;SDS011;744;51.436;7.356;2023-04-16T02:30:41;35.73;;;17.80;;
1505;SDS011;744;51.436;7.356;2023-04-16T02:33:08;27.77;;;18.17;;
1505;SDS011;744;51.436;7.356;2023-04-16T02:35:37;34.77;;;19.27;;
1505;SDS011;744;51.436;7.356;2023-04-16T02:38:05;29.07;;;17.80;;
1505;SDS011;744;51.436;7.356;2023-04-16T02:40:33;32.50;;;18.87;;
1505;SDS011;744;51.436;7.356;2023-04-16T02:42:59;32.40;;;20.73;;
1505;SDS011;744;51.436;7.356;2023-04-16T02:45:27;28.67;;;17.87;;
1505;SDS011;744;51.436;7.356;2023-04-16T02:47:53;33.20;;;18.70;;
1505;SDS011;744;51.436;7.356;2023-04-16T02:50:20;32.17;;;19.50;;
1505;SDS011;744;51.436;7.356;2023-04-16T02:52:47;30.17;;;18.23;;
1505;SDS011;744;51.436;7.356;2023-04-16T02:55:14;26.43;;;17.00;;
1505;SDS011;744;51.436;7.356;2023-04-16T02:57:41;24.93;;;17.60;;
1505;SDS011;744;51.436;7.356;2023-04-16T03:00:08;28.13;;;18.97;;
1505;SDS011;744;51.436;7.356;2023-04-16T03:02:35;22.93;;;16.90;;
1505;SDS011;744;51.436;7.356;2023-04-16T03:05:02;35.10;;;19.57;;
1505;SDS011;744;51.436;7.356;2023-04-16T03:07:29;27.43;;;18.57;;
1505;SDS011;744;51.436;7.356;2023-04-16T03:09:56;30.67;;;17.07;;
1505;SDS011;744;51.436;7.356;2023-04-16T03:12:22;28.87;;;16.90;;
1505;SDS011;744;51.436;7.356;2023-04-16T03:14:49;27.17;;;16.33;;
1505;SDS011;744;51.436;7.356;2023-04-16T03:17:19;27.97;;;18.27;;
1505;SDS011;744;51.436;7.356;2023-04-16T03:19:46;25.37;;;18.10;;
1505;SDS011;744;51.436;7.356;2023-04-16T03:22:13;27.17;;;17.13;;
1505;SDS011;744;51.436;7.356;2023-04-16T03:24:39;28.20;;;18.43;;
1505;SDS011;744;51.436;7.356;2023-04-16T03:27:06;24.03;;;17.27;;
1505;SDS011;744;51.436;7.356;2023-04-16T03:29:35;27.90;;;18.30;;
1505;SDS011;744;51.436;7.356;2023-04-16T03:32:05;27.93;;;19.10;;
1505;SDS011;744;51.436;7.356;2023-04-16T03:34:32;24.40;;;18.37;;
1505;SDS011;744;51.436;7.356;2023-04-16T03:36:59;23.87;;;16.93;;
1505;SDS011;744;51.436;7.356;2023-04-16T03:39:26;26.40;;;18.43;;
1505;SDS011;744;51.436;7.356;2023-04-16T03:41:53;25.33;;;17.27;;
1505;SDS011;744;51.436;7.356;2023-04-16T03:44:20;23.33;;;17.07;;
1505;SDS011;744;51.436;7.356;2023-04-16T03:46:46;24.40;;;16.47;;
1505;SDS011;744;51.436;7.356;2023-04-16T03:49:13;24.27;;;16.60;;
1505;SDS011;744;51.436;7.356;2023-04-16T03:51:40;23.07;;;16.07;;
1505;SDS011;744;51.436;7.356;2023-04-16T03:54:07;23.93;;;16.80;;
1505;SDS011;744;51.436;7.356;2023-04-16T03:56:34;24.77;;;17.40;;
1505;SDS011;744;51.436;7.356;2023-04-16T03:59:00;24.83;;;17.50;;
1505;SDS011;744;51.436;7.356;2023-04-16T04:01:27;21.67;;;17.00;;
1505;SDS011;744;51.436;7.356;2023-04-16T04:03:54;28.60;;;17.83;;
1505;SDS011;744;51.436;7.356;2023-04-16T04:06:21;26.77;;;17.77;;
1505;SDS011;744;51.436;7.356;2023-04-16T04:08:48;24.47;;;17.97;;
1505;SDS011;744;51.436;7.356;2023-04-16T04:11:14;23.30;;;18.40;;
1505;SDS011;744;51.436;7.356;2023-04-16T04:13:41;25.93;;;17.03;;
1505;SDS011;744;51.436;7.356;2023-04-16T04:16:08;30.50;;;17.70;;
1505;SDS011;744;51.436;7.356;2023-04-16T04:18:34;28.87;;;18.07;;
1505;SDS011;744;51.436;7.356;2023-04-16T04:21:08;29.67;;;19.90;;
1505;SDS011;744;51.436;7.356;2023-04-16T04:23:35;27.10;;;18.47;;
1505;SDS011;744;51.436;7.356;2023-04-16T04:26:02;34.50;;;20.03;;
1505;SDS011;744;51.436;7.356;2023-04-16T04:28:31;34.73;;;20.27;;
1505;SDS011;744;51.436;7.356;2023-04-16T04:30:58;31.10;;;19.97;;
1505;SDS011;744;51.436;7.356;2023-04-16T04:33:26;26.40;;;19.23;;
1505;SDS011;744;51.436;7.356;2023-04-16T04:35:53;35.23;;;20.30;;
1505;SDS011;744;51.436;7.356;2023-04-16T04:38:21;35.23;;;22.37;;
1505;SDS011;744;51.436;7.356;2023-04-16T04:40:50;32.90;;;21.13;;
1505;SDS011;744;51.436;7.356;2023-04-16T04:43:18;38.83;;;20.50;;
1505;SDS011;744;51.436;7.356;2023-04-16T04:45:45;34.93;;;21.33;;
1505;SDS011;744;51.436;7.356;2023-04-16T04:48:12;37.63;;;22.10;;
1505;SDS011;744;51.436;7.356;2023-04-16T04:50:39;28.67;;;20.07;;
1505;SDS011;744;51.436;7.356;2023-04-16T04:53:06;32.30;;;20.77;;
1505;SDS011;744;51.436;7.356;2023-04-16T04:55:37;32.83;;;19.80;;
1505;SDS011;744;51.436;7.356;2023-04-16T04:58:04;33.07;;;21.37;;
1505;SDS011;744;51.436;7.356;2023-04-16T05:00:32;30.07;;;20.63;;
1505;SDS011;744;51.436;7.356;2023-04-16T05:03:04;28.10;;;20.40;;
1505;SDS011;744;51.436;7.356;2023-04-16T05:05:34;34.10;;;19.50;;
1505;SDS011;744;51.436;7.356;2023-04-16T05:08:01;33.47;;;20.97;;
1505;SDS011;744;51.436;7.356;2023-04-16T05:10:28;34.07;;;22.93;;
1505;SDS011;744;51.436;7.356;2023-04-16T05:12:55;27.60;;;20.03;;
1505;SDS011;744;51.436;7.356;2023-04-16T05:15:22;34.67;;;19.77;;
1505;SDS011;744;51.436;7.356;2023-04-16T05:17:49;35.47;;;22.47;;
1505;SDS011;744;51.436;7.356;2023-04-16T05:20:15;30.40;;;21.47;;
1505;SDS011;744;51.436;7.356;2023-04-16T05:22:42;34.50;;;21.93;;
1505;SDS011;744;51.436;7.356;2023-04-16T05:25:09;32.27;;;21.80;;
1505;SDS011;744;51.436;7.356;2023-04-16T05:27:36;26.90;;;20.30;;
1505;SDS011;744;51.436;7.356;2023-04-16T05:30:03;29.37;;;18.73;;
1505;SDS011;744;51.436;7.356;2023-04-16T05:32:30;32.70;;;22.03;;
1505;SDS011;744;51.436;7.356;2023-04-16T05:34:57;29.27;;;21.20;;
1505;SDS011;744;51.436;7.356;2023-04-16T05:37:24;26.23;;;19.30;;
1505;SDS011;744;51.436;7.356;2023-04-16T05:39:50;31.67;;;21.93;;
1505;SDS011;744;51.436;7.356;2023-04-16T05:42:17;34.03;;;22.23;;
1505;SDS011;744;51.436;7.356;2023-04-16T05:44:44;32.67;;;21.33;;
1505;SDS011;744;51.436;7.356;2023-04-16T05:47:11;35.67;;;22.17;;
1505;SDS011;744;51.436;7.356;2023-04-16T05:49:38;28.57;;;21.37;;
1505;SDS011;744;51.436;7.356;2023-04-16T05:52:04;28.70;;;20.90;;
1505;SDS011;744;51.436;7.356;2023-04-16T05:54:32;31.20;;;22.17;;
1505;SDS011;744;51.436;7.356;2023-04-16T05:56:59;38.30;;;23.13;;
1505;SDS011;744;51.436;7.356;2023-04-16T05:59:27;36.03;;;23.23;;
1505;SDS011;744;51.436;7.356;2023-04-16T06:01:54;30.70;;;22.83;;
1505;SDS011;744;51.436;7.356;2023-04-16T06:04:21;29.47;;;23.87;;
1505;SDS011;744;51.436;7.356;2023-04-16T06:06:48;32.27;;;22.27;;
1505;SDS011;744;51.436;7.356;2023-04-16T06:09:15;29.00;;;22.13;;
1505;SDS011;744;51.436;7.356;2023-04-16T06:11:41;27.17;;;20.47;;
1505;SDS011;744;51.436;7.356;2023-04-16T06:14:09;33.67;;;22.50;;
1505;SDS011;744;51.436;7.356;2023-04-16T06:16:36;32.27;;;23.20;;
1505;SDS011;744;51.436;7.356;2023-04-16T06:19:03;30.23;;;20.50;;
1505;SDS011;744;51.436;7.356;2023-04-16T06:21:29;32.90;;;21.77;;
1505;SDS011;744;51.436;7.356;2023-04-16T06:23:57;31.90;;;22.00;;
1505;SDS011;744;51.436;7.356;2023-04-16T06:26:23;32.90;;;22.33;;
1505;SDS011;744;51.436;7.356;2023-04-16T06:28:51;27.00;;;19.67;;
1505;SDS011;744;51.436;7.356;2023-04-16T06:31:17;30.43;;;21.83;;
1505;SDS011;744;51.436;7.356;2023-04-16T06:33:44;30.67;;;20.57;;
1505;SDS011;744;51.436;7.356;2023-04-16T06:36:11;28.97;;;21.50;;
1505;SDS011;744;51.436;7.356;2023-04-16T06:38:38;33.80;;;23.57;;
1505;SDS011;744;51.436;7.356;2023-04-16T06:41:05;35.70;;;24.20;;
1505;SDS011;744;51.436;7.356;2023-04-16T06:43:32;33.57;;;22.90;;
1505;SDS011;744;51.436;7.356;2023-04-16T06:45:59;27.33;;;20.90;;
1505;SDS011;744;51.436;7.356;2023-04-16T06:48:26;34.50;;;23.13;;
1505;SDS011;744;51.436;7.356;2023-04-16T06:50:53;35.00;;;21.70;;
1505;SDS011;744;51.436;7.356;2023-04-16T06:53:21;30.00;;;21.17;;
1505;SDS011;744;51.436;7.356;2023-04-16T06:55:48;29.67;;;22.70;;
1505;SDS011;744;51.436;7.356;2023-04-16T06:58:15;28.40;;;23.47;;
1505;SDS011;744;51.436;7.356;2023-04-16T07:00:42;31.63;;;21.23;;
1505;SDS011;744;51.436;7.356;2023-04-16T07:03:09;26.83;;;21.30;;
1505;SDS011;744;51.436;7.356;2023-04-16T07:05:36;30.63;;;22.10;;
1505;SDS011;744;51.436;7.356;2023-04-16T07:08:03;28.80;;;22.00;;
1505;SDS011;744;51.436;7.356;2023-04-16T07:10:29;27.50;;;20.57;;
1505;SDS011;744;51.436;7.356;2023-04-16T07:12:56;27.83;;;22.10;;
1505;SDS011;744;51.436;7.356;2023-04-16T07:15:24;30.10;;;21.90;;
1505;SDS011;744;51.436;7.356;2023-04-16T07:17:50;27.50;;;20.00;;
1505;SDS011;744;51.436;7.356;2023-04-16T07:20:17;25.90;;;20.70;;
1505;SDS011;744;51.436;7.356;2023-04-16T07:22:44;24.37;;;19.37;;
1505;SDS011;744;51.436;7.356;2023-04-16T07:25:11;24.60;;;19.67;;
1505;SDS011;744;51.436;7.356;2023-04-16T07:27:38;26.43;;;19.90;;
1505;SDS011;744;51.436;7.356;2023-04-16T07:30:05;25.33;;;21.27;;
1505;SDS011;744;51.436;7.356;2023-04-16T07:32:33;28.67;;;20.50;;
1505;SDS011;744;51.436;7.356;2023-04-16T07:35:00;26.50;;;19.70;;
1505;SDS011;744;51.436;7.356;2023-04-16T07:37:28;26.10;;;19.13;;
1505;SDS011;744;51.436;7.356;2023-04-16T07:39:56;28.63;;;23.03;;
1505;SDS011;744;51.436;7.356;2023-04-16T07:42:23;25.63;;;21.87;;
1505;SDS011;744;51.436;7.356;2023-04-16T07:44:49;28.40;;;19.03;;
1505;SDS011;744;51.436;7.356;2023-04-16T07:47:16;24.67;;;19.93;;
1505;SDS011;744;51.436;7.356;2023-04-16T07:49:43;28.37;;;21.47;;
1505;SDS011;744;51.436;7.356;2023-04-16T07:52:10;23.83;;;20.03;;
1505;SDS011;744;51.436;7.356;2023-04-16T07:54:37;26.37;;;21.93;;
1505;SDS011;744;51.436;7.356;2023-04-16T07:57:03;28.73;;;21.27;;
1505;SDS011;744;51.436;7.356;2023-04-16T07:59:30;24.53;;;18.87;;
1505;SDS011;744;51.436;7.356;2023-04-16T08:01:57;22.73;;;19.83;;
1505;SDS011;744;51.436;7.356;2023-04-16T08:04:24;26.27;;;22.40;;
1505;SDS011;744;51.436;7.356;2023-04-16T08:06:52;24.03;;;20.67;;
1505;SDS011;744;51.436;7.356;2023-04-16T08:09:19;24.23;;;19.47;;
1505;SDS011;744;51.436;7.356;2023-04-16T08:11:47;24.07;;;20.97;;
1505;SDS011;744;51.436;7.356;2023-04-16T08:14:15;24.23;;;21.03;;
1505;SDS011;744;51.436;7.356;2023-04-16T08:16:42;22.90;;;20.33;;
1505;SDS011;744;51.436;7.356;2023-04-16T08:19:09;23.07;;;20.30;;
1505;SDS011;744;51.436;7.356;2023-04-16T08:21:36;29.77;;;21.53;;
1505;SDS011;744;51.436;7.356;2023-04-16T08:24:03;26.80;;;20.00;;
1505;SDS011;744;51.436;7.356;2023-04-16T08:26:30;27.57;;;21.07;;
1505;SDS011;744;51.436;7.356;2023-04-16T08:28:56;25.77;;;21.40;;
1505;SDS011;744;51.436;7.356;2023-04-16T08:31:23;26.30;;;20.80;;
1505;SDS011;744;51.436;7.356;2023-04-16T08:33:50;29.77;;;21.53;;
1505;SDS011;744;51.436;7.356;2023-04-16T08:36:16;23.10;;;19.80;;
1505;SDS011;744;51.436;7.356;2023-04-16T08:38:43;23.80;;;19.80;;
1505;SDS011;744;51.436;7.356;2023-04-16T08:41:10;24.00;;;20.33;;
1505;SDS011;744;51.436;7.356;2023-04-16T08:43:41;25.53;;;21.17;;
1505;SDS011;744;51.436;7.356;2023-04-16T08:46:10;23.30;;;19.60;;
1505;SDS011;744;51.436;7.356;2023-04-16T08:48:37;26.70;;;20.80;;
1505;SDS011;744;51.436;7.356;2023-04-16T08:51:08;27.93;;;21.00;;
1505;SDS011;744;51.436;7.356;2023-04-16T08:53:42;23.67;;;19.57;;
1505;SDS011;744;51.436;7.356;2023-04-16T08:56:27;23.30;;;20.30;;
1505;SDS011;744;51.436;7.356;2023-04-16T08:58:54;27.33;;;20.73;;
1505;SDS011;744;51.436;7.356;2023-04-16T09:01:23;25.23;;;21.53;;
1505;SDS011;744;51.436;7.356;2023-04-16T09:03:52;27.13;;;21.87;;
1505;SDS011;744;51.436;7.356;2023-04-16T09:06:19;23.00;;;19.33;;
1505;SDS011;744;51.436;7.356;2023-04-16T09:08:46;23.70;;;19.87;;
1505;SDS011;744;51.436;7.356;2023-04-16T09:11:16;26.03;;;22.37;;
1505;SDS011;744;51.436;7.356;2023-04-16T09:13:44;26.07;;;20.93;;
1505;SDS011;744;51.436;7.356;2023-04-16T09:16:12;24.87;;;22.27;;
1505;SDS011;744;51.436;7.356;2023-04-16T09:18:39;22.30;;;20.10;;
1505;SDS011;744;51.436;7.356;2023-04-16T09:21:08;22.53;;;19.17;;
1505;SDS011;744;51.436;7.356;2023-04-16T09:23:36;25.53;;;21.70;;
1505;SDS011;744;51.436;7.356;2023-04-16T09:26:06;23.83;;;20.97;;
1505;SDS011;744;51.436;7.356;2023-04-16T09:28:39;23.90;;;19.13;;
1505;SDS011;744;51.436;7.356;2023-04-16T09:33:42;25.80;;;20.93;;
1505;SDS011;744;51.436;7.356;2023-04-16T09:36:25;26.57;;;20.67;;
1505;SDS011;744;51.436;7.356;2023-04-16T09:38:53;26.73;;;20.63;;
1505;SDS011;744;51.436;7.356;2023-04-16T09:41:23;25.13;;;18.90;;
1505;SDS011;744;51.436;7.356;2023-04-16T09:43:59;24.97;;;22.27;;
1505;SDS011;744;51.436;7.356;2023-04-16T09:46:32;23.27;;;20.77;;
1505;SDS011;744;51.436;7.356;2023-04-16T09:49:04;25.43;;;21.33;;
1505;SDS011;744;51.436;7.356;2023-04-16T09:51:36;26.63;;;21.37;;
1505;SDS011;744;51.436;7.356;2023-04-16T09:54:03;22.57;;;19.80;;
1505;SDS011;744;51.436;7.356;2023-04-16T09:56:31;22.40;;;19.97;;
1505;SDS011;744;51.436;7.356;2023-04-16T09:58:58;22.60;;;19.90;;
1505;SDS011;744;51.436;7.356;2023-04-16T10:01:26;25.93;;;19.33;;
1505;SDS011;744;51.436;7.356;2023-04-16T10:03:53;20.90;;;18.70;;
1505;SDS011;744;51.436;7.356;2023-04-16T10:06:22;25.30;;;20.30;;
1505;SDS011;744;51.436;7.356;2023-04-16T10:08:51;24.23;;;21.10;;
1505;SDS011;744;51.436;7.356;2023-04-16T10:11:19;25.70;;;20.80;;
1505;SDS011;744;51.436;7.356;2023-04-16T10:13:46;20.87;;;18.67;;
1505;SDS011;744;51.436;7.356;2023-04-16T10:16:13;26.20;;;19.50;;
1505;SDS011;744;51.436;7.356;2023-04-16T10:18:41;22.70;;;20.30;;
1505;SDS011;744;51.436;7.356;2023-04-16T10:21:09;22.60;;;20.13;;
1505;SDS011;744;51.436;7.356;2023-04-16T10:23:41;22.00;;;19.13;;
1505;SDS011;744;51.436;7.356;2023-04-16T10:26:08;22.70;;;20.30;;
1505;SDS011;744;51.436;7.356;2023-04-16T10:28:35;22.23;;;19.77;;
1505;SDS011;744;51.436;7.356;2023-04-16T10:31:03;27.43;;;22.10;;
1505;SDS011;744;51.436;7.356;2023-04-16T10:33:33;21.37;;;19.07;;
1505;SDS011;744;51.436;7.356;2023-04-16T10:36:14;24.27;;;19.57;;
1505;SDS011;744;51.436;7.356;2023-04-16T10:38:46;23.30;;;19.10;;
1505;SDS011;744;51.436;7.356;2023-04-16T10:41:15;22.07;;;19.20;;
1505;SDS011;744;51.436;7.356;2023-04-16T10:43:48;22.07;;;17.93;;
1505;SDS011;744;51.436;7.356;2023-04-16T10:46:16;22.13;;;19.73;;
1505;SDS011;744;51.436;7.356;2023-04-16T10:48:44;20.80;;;18.70;;
1505;SDS011;744;51.436;7.356;2023-04-16T10:51:28;21.53;;;17.50;;
1505;SDS011;744;51.436;7.356;2023-04-16T10:54:02;20.70;;;18.60;;
1505;SDS011;744;51.436;7.356;2023-04-16T10:56:32;19.37;;;17.47;;
1505;SDS011;744;51.436;7.356;2023-04-16T10:59:02;19.20;;;17.30;;
1505;SDS011;744;51.436;7.356;2023-04-16T11:01:32;19.27;;;17.33;;
1505;SDS011;744;51.436;7.356;2023-04-16T11:04:25;19.13;;;17.13;;
1505;SDS011;744;51.436;7.356;2023-04-16T11:10:02;24.80;;;18.03;;
1505;SDS011;744;51.436;7.356;2023-04-16T11:12:34;24.43;;;20.73;;
1505;SDS011;744;51.436;7.356;2023-04-16T11:15:10;21.03;;;18.80;;
1505;SDS011;744;51.436;7.356;2023-04-16T11:20:19;20.03;;;17.93;;
1505;SDS011;744;51.436;7.356;2023-04-16T11:22:47;19.33;;;17.37;;
1505;SDS011;744;51.436;7.356;2023-04-16T11:25:22;20.40;;;18.50;;
1505;SDS011;744;51.436;7.356;2023-04-16T11:27:51;19.83;;;17.80;;
1505;SDS011;744;51.436;7.356;2023-04-16T11:30:27;19.97;;;17.83;;
1505;SDS011;744;51.436;7.356;2023-04-16T11:32:55;20.47;;;18.30;;
1505;SDS011;744;51.436;7.356;2023-04-16T11:35:22;18.90;;;17.00;;
1505;SDS011;744;51.436;7.356;2023-04-16T11:37:49;18.70;;;16.20;;
1505;SDS011;744;51.436;7.356;2023-04-16T11:40:20;19.67;;;16.17;;
1505;SDS011;744;51.436;7.356;2023-04-16T11:42:47;17.07;;;15.27;;
1505;SDS011;744;51.436;7.356;2023-04-16T11:45:13;17.57;;;15.73;;
1505;SDS011;744;51.436;7.356;2023-04-16T11:47:47;18.20;;;16.40;;
1505;SDS011;744;51.436;7.356;2023-04-16T11:50:24;19.33;;;16.47;;
1505;SDS011;744;51.436;7.356;2023-04-16T11:52:56;16.63;;;15.03;;
1505;SDS011;744;51.436;7.356;2023-04-16T11:55:30;17.93;;;16.03;;
1505;SDS011;744;51.436;7.356;2023-04-16T11:57:56;17.13;;;15.40;;
1505;SDS011;744;51.436;7.356;2023-04-16T12:00:36;17.07;;;15.30;;
1505;SDS011;744;51.436;7.356;2023-04-16T12:03:02;14.87;;;13.57;;
1505;SDS011;744;51.436;7.356;2023-04-16T12:05:30;16.13;;;14.43;;
1505;SDS011;744;51.436;7.356;2023-04-16T12:08:00;14.50;;;13.10;;
1505;SDS011;744;51.436;7.356;2023-04-16T12:10:28;15.40;;;13.90;;
1505;SDS011;744;51.436;7.356;2023-04-16T12:13:11;17.27;;;15.47;;
1505;SDS011;744;51.436;7.356;2023-04-16T12:15:43;16.23;;;14.63;;
1505;SDS011;744;51.436;7.356;2023-04-16T12:18:14;17.57;;;15.90;;
1505;SDS011;744;51.436;7.356;2023-04-16T12:20:42;28.23;;;17.40;;
1505;SDS011;744;51.436;7.356;2023-04-16T12:23:09;17.33;;;15.53;;
1505;SDS011;744;51.436;7.356;2023-04-16T12:25:47;19.67;;;17.87;;
1505;SDS011;744;51.436;7.356;2023-04-16T12:28:25;17.83;;;15.73;;
1505;SDS011;744;51.436;7.356;2023-04-16T12:30:56;17.60;;;15.57;;
1505;SDS011;744;51.436;7.356;2023-04-16T12:33:23;18.13;;;16.33;;
1505;SDS011;744;51.436;7.356;2023-04-16T12:35:49;18.97;;;16.93;;
1505;SDS011;744;51.436;7.356;2023-04-16T12:38:17;18.63;;;16.70;;
1505;SDS011;744;51.436;7.356;2023-04-16T12:40:44;18.90;;;17.10;;
1505;SDS011;744;51.436;7.356;2023-04-16T12:43:10;17.87;;;16.07;;
1505;SDS011;744;51.436;7.356;2023-04-16T12:45:38;18.20;;;16.40;;
1505;SDS011;744;51.436;7.356;2023-04-16T12:48:06;17.43;;;15.73;;
1505;SDS011;744;51.436;7.356;2023-04-16T12:50:32;17.53;;;15.83;;
1505;SDS011;744;51.436;7.356;2023-04-16T12:52:59;16.73;;;15.13;;
1505;SDS011;744;51.436;7.356;2023-04-16T12:55:26;17.50;;;15.73;;
1505;SDS011;744;51.436;7.356;2023-04-16T12:57:53;18.70;;;16.90;;
1505;SDS011;744;51.436;7.356;2023-04-16T13:00:20;16.80;;;15.20;;
1505;SDS011;744;51.436;7.356;2023-04-16T13:02:47;18.83;;;16.83;;
1505;SDS011;744;51.436;7.356;2023-04-16T13:05:14;22.20;;;19.40;;
1505;SDS011;744;51.436;7.356;2023-04-16T13:07:44;17.90;;;15.43;;
1505;SDS011;744;51.436;7.356;2023-04-16T13:10:11;18.50;;;16.60;;
1505;SDS011;744;51.436;7.356;2023-04-16T13:12:38;19.47;;;17.03;;
1505;SDS011;744;51.436;7.356;2023-04-16T13:15:05;18.70;;;16.70;;
1505;SDS011;744;51.436;7.356;2023-04-16T13:17:33;18.93;;;16.93;;
1505;SDS011;744;51.436;7.356;2023-04-16T13:19:59;18.13;;;16.07;;
1505;SDS011;744;51.436;7.356;2023-04-16T13:22:27;17.93;;;16.13;;
1505;SDS011;744;51.436;7.356;2023-04-16T13:24:53;19.30;;;17.30;;
1505;SDS011;744;51.436;7.356;2023-04-16T13:27:20;23.53;;;17.50;;
1505;SDS011;744;51.436;7.356;2023-04-16T13:29:47;17.90;;;15.83;;
1505;SDS011;744;51.436;7.356;2023-04-16T13:32:14;18.53;;;15.97;;
1505;SDS011;744;51.436;7.356;2023-04-16T13:34:41;19.33;;;17.33;;
1505;SDS011;744;51.436;7.356;2023-04-16T13:37:08;17.80;;;15.90;;
1505;SDS011;744;51.436;7.356;2023-04-16T13:39:34;18.93;;;15.63;;
1505;SDS011;744;51.436;7.356;2023-04-16T13:42:01;15.90;;;13.87;;
1505;SDS011;744;51.436;7.356;2023-04-16T13:44:28;18.53;;;15.50;;
1505;SDS011;744;51.436;7.356;2023-04-16T13:46:55;16.80;;;15.10;;
1505;SDS011;744;51.436;7.356;2023-04-16T13:49:22;16.27;;;14.70;;
1505;SDS011;744;51.436;7.356;2023-04-16T13:51:49;18.10;;;16.27;;
1505;SDS011;744;51.436;7.356;2023-04-16T13:54:16;18.53;;;16.43;;
1505;SDS011;744;51.436;7.356;2023-04-16T13:56:42;18.80;;;16.90;;
1505;SDS011;744;51.436;7.356;2023-04-16T13:59:09;19.53;;;17.43;;
1505;SDS011;744;51.436;7.356;2023-04-16T14:01:36;18.00;;;15.23;;
1505;SDS011;744;51.436;7.356;2023-04-16T14:04:03;16.90;;;15.13;;
1505;SDS011;744;51.436;7.356;2023-04-16T14:06:35;17.23;;;15.30;;
1505;SDS011;744;51.436;7.356;2023-04-16T14:09:02;19.50;;;15.80;;
1505;SDS011;744;51.436;7.356;2023-04-16T14:11:29;17.43;;;15.63;;
1505;SDS011;744;51.436;7.356;2023-04-16T14:13:56;16.43;;;14.73;;
1505;SDS011;744;51.436;7.356;2023-04-16T14:16:23;16.10;;;14.60;;
1505;SDS011;744;51.436;7.356;2023-04-16T14:18:51;16.20;;;14.60;;
1505;SDS011;744;51.436;7.356;2023-04-16T14:21:18;16.03;;;14.23;;
1505;SDS011;744;51.436;7.356;2023-04-16T14:23:44;16.60;;;14.70;;
1505;SDS011;744;51.436;7.356;2023-04-16T14:26:11;14.20;;;12.77;;
1505;SDS011;744;51.436;7.356;2023-04-16T14:28:38;13.20;;;11.90;;
1505;SDS011;744;51.436;7.356;2023-04-16T14:31:06;15.60;;;13.90;;
1505;SDS011;744;51.436;7.356;2023-04-16T14:33:33;14.90;;;13.33;;
1505;SDS011;744;51.436;7.356;2023-04-16T14:36:00;14.10;;;12.40;;
1505;SDS011;744;51.436;7.356;2023-04-16T14:38:28;15.33;;;13.73;;
1505;SDS011;744;51.436;7.356;2023-04-16T14:40:56;15.43;;;13.93;;
1505;SDS011;744;51.436;7.356;2023-04-16T14:43:23;14.50;;;13.00;;
1505;SDS011;744;51.436;7.356;2023-04-16T14:45:50;17.17;;;14.00;;
1505;SDS011;744;51.436;7.356;2023-04-16T14:48:17;15.37;;;13.43;;
1505;SDS011;744;51.436;7.356;2023-04-16T14:50:44;14.40;;;13.00;;
1505;SDS011;744;51.436;7.356;2023-04-16T14:53:11;15.33;;;12.47;;
1505;SDS011;744;51.436;7.356;2023-04-16T14:55:38;13.97;;;12.67;;
1505;SDS011;744;51.436;7.356;2023-04-16T14:58:05;16.77;;;13.23;;
1505;SDS011;744;51.436;7.356;2023-04-16T15:00:35;13.53;;;11.93;;
1505;SDS011;744;51.436;7.356;2023-04-16T15:03:02;13.77;;;12.30;;
1505;SDS011;744;51.436;7.356;2023-04-16T15:05:29;13.40;;;12.10;;
1505;SDS011;744;51.436;7.356;2023-04-16T15:07:56;13.50;;;12.20;;
1505;SDS011;744;51.436;7.356;2023-04-16T15:10:23;13.27;;;11.97;;
1505;SDS011;744;51.436;7.356;2023-04-16T15:12:50;12.63;;;11.43;;